Time;durP1;ratioP1;P1;durP2;ratioP2;P2;SDS_P1;SDS_P2;PMS_P1;PMS_P2;Temp;Humidity;BMP_temperature;BMP_pressure;BME280_temperature;BME280_humidity;BME280_pressure;Samples;Min_cycle;Max_cycle;Signal;HPM_P1;HPM_P2
2022/10/21 00:01:26;;;;;;;8.07;4.70;;;;;;;;;;4954743;28;20030;-83
2022/10/21 00:03:52;;;;;;;8.93;4.78;;;;;;;;;;4965033;28;20045;-82
2022/10/21 00:06:17;;;;;;;7.65;4.53;;;;;;;;;;4946941;28;20050;-84
2022/10/21 00:08:42;;;;;;;7.55;4.47;;;;;;;;;;4961537;28;20038;-82
2022/10/21 00:11:08;;;;;;;8.63;4.97;;;;;;;;;;4969982;28;20027;-83
2022/10/21 00:13:35;;;;;;;6.93;4.50;;;;;;;;;;4945617;28;20034;-84
2022/10/21 00:16:03;;;;;;;9.10;4.95;;;;;;;;;;4963896;28;20476;-83
2022/10/21 00:18:29;;;;;;;7.95;4.38;;;;;;;;;;4982616;28;20039;-82
2022/10/21 00:20:55;;;;;;;7.85;4.57;;;;;;;;;;4955948;28;20045;-83
2022/10/21 00:23:20;;;;;;;7.63;4.85;;;;;;;;;;4964362;28;20034;-82
2022/10/21 00:25:45;;;;;;;8.18;4.63;;;;;;;;;;4968334;28;20037;-83
2022/10/21 00:28:11;;;;;;;7.05;4.53;;;;;;;;;;4954631;28;20042;-83
2022/10/21 00:30:42;;;;;;;7.75;4.38;;;;;;;;;;4954700;28;20078;-83
2022/10/21 00:33:07;;;;;;;7.57;4.30;;;;;;;;;;4964944;28;20226;-84
2022/10/21 00:35:33;;;;;;;10.57;5.07;;;;;;;;;;4957916;28;20145;-83
2022/10/21 00:37:58;;;;;;;9.70;4.65;;;;;;;;;;4943898;28;20489;-83
2022/10/21 00:40:23;;;;;;;7.15;4.05;;;;;;;;;;4967994;28;20152;-83
2022/10/21 00:42:49;;;;;;;8.30;4.78;;;;;;;;;;4967365;28;20093;-84
2022/10/21 00:45:23;;;;;;;7.82;4.63;;;;;;;;;;4946422;28;20038;-82
2022/10/21 00:47:52;;;;;;;7.53;4.50;;;;;;;;;;4953191;28;20066;-83
2022/10/21 00:50:23;;;;;;;8.00;4.55;;;;;;;;;;4952036;28;20070;-83
2022/10/21 00:52:49;;;;;;;9.10;4.60;;;;;;;;;;4960753;28;20034;-82
2022/10/21 00:55:15;;;;;;;7.35;4.47;;;;;;;;;;4951190;28;20410;-82
2022/10/21 00:57:40;;;;;;;7.78;4.47;;;;;;;;;;4952979;28;20034;-82
2022/10/21 01:00:06;;;;;;;7.25;4.63;;;;;;;;;;4952586;28;20081;-83
2022/10/21 01:02:31;;;;;;;6.60;4.30;;;;;;;;;;4951733;28;20088;-83
2022/10/21 01:04:59;;;;;;;7.93;4.43;;;;;;;;;;4961228;28;20042;-83
2022/10/21 01:07:24;;;;;;;7.93;4.90;;;;;;;;;;4951930;28;20042;-83
2022/10/21 01:09:50;;;;;;;8.82;5.10;;;;;;;;;;4952401;28;20034;-83
2022/10/21 01:12:26;;;;;;;8.35;4.72;;;;;;;;;;4966166;28;20508;-84
2022/10/21 01:15:05;;;;;;;6.97;4.60;;;;;;;;;;4961923;28;20088;-84
2022/10/21 01:17:47;;;;;;;8.25;5.00;;;;;;;;;;4950351;28;20026;-83
2022/10/21 01:20:38;;;;;;;8.68;4.55;;;;;;;;;;4946792;28;20521;-83
2022/10/21 01:23:06;;;;;;;9.65;5.30;;;;;;;;;;4978482;28;20504;-83
2022/10/21 01:25:39;;;;;;;7.38;4.90;;;;;;;;;;4964212;28;20034;-84
2022/10/21 01:28:41;;;;;;;8.43;5.13;;;;;;;;;;4950602;28;20129;-83
2022/10/21 01:31:27;;;;;;;8.75;4.90;;;;;;;;;;4960197;28;20113;-83
2022/10/21 01:34:01;;;;;;;7.75;4.47;;;;;;;;;;4974766;28;20035;-84
2022/10/21 01:36:29;;;;;;;9.65;5.32;;;;;;;;;;4950532;28;20039;-83
2022/10/21 01:38:58;;;;;;;8.68;5.10;;;;;;;;;;4964860;28;20477;-83
2022/10/21 01:41:29;;;;;;;7.20;4.90;;;;;;;;;;4975077;28;20087;-83
2022/10/21 01:44:08;;;;;;;9.25;5.68;;;;;;;;;;4946734;28;20552;-84
2022/10/21 01:46:45;;;;;;;7.90;4.72;;;;;;;;;;4959719;28;20581;-83
2022/10/21 01:49:26;;;;;;;10.15;5.68;;;;;;;;;;4958470;28;20042;-84
2022/10/21 01:51:52;;;;;;;9.90;4.95;;;;;;;;;;4950792;28;20978;-84
2022/10/21 01:54:33;;;;;;;8.80;5.45;;;;;;;;;;4969340;28;20042;-83
2022/10/21 01:57:00;;;;;;;8.27;4.90;;;;;;;;;;4952416;28;20393;-84
2022/10/21 01:59:27;;;;;;;11.15;5.57;;;;;;;;;;4945707;28;20498;-84
2022/10/21 02:01:53;;;;;;;9.35;4.97;;;;;;;;;;4949478;28;20130;-84
2022/10/21 02:04:19;;;;;;;9.30;5.45;;;;;;;;;;4952395;28;20050;-85
2022/10/21 02:06:45;;;;;;;9.70;5.55;;;;;;;;;;4951964;28;20114;-84
2022/10/21 02:09:10;;;;;;;8.85;5.15;;;;;;;;;;4950296;28;20042;-83
2022/10/21 02:11:37;;;;;;;11.38;5.70;;;;;;;;;;4962273;28;20125;-83
2022/10/21 02:14:13;;;;;;;9.00;5.23;;;;;;;;;;4959720;28;20035;-83
2022/10/21 02:16:39;;;;;;;10.48;5.38;;;;;;;;;;4965873;28;20113;-83
2022/10/21 02:19:11;;;;;;;9.05;5.05;;;;;;;;;;4951927;28;20034;-83
2022/10/21 02:21:36;;;;;;;8.70;5.57;;;;;;;;;;4950342;28;20030;-83
2022/10/21 02:24:04;;;;;;;10.27;5.80;;;;;;;;;;4969872;28;20044;-85
2022/10/21 02:26:30;;;;;;;9.50;5.78;;;;;;;;;;4963240;28;20065;-84
2022/10/21 02:28:56;;;;;;;10.18;5.25;;;;;;;;;;4971400;28;20521;-83
2022/10/21 02:32:00;;;;;;;9.20;4.85;;;;;;;;;;4955484;28;20034;-83
2022/10/21 02:34:30;;;;;;;11.32;5.55;;;;;;;;;;4892968;29;20051;-85
2022/10/21 02:37:33;;;;;;;8.52;5.07;;;;;;;;;;4954442;28;20057;-85
2022/10/21 02:40:01;;;;;;;9.90;5.32;;;;;;;;;;4972226;28;20117;-84
2022/10/21 02:42:32;;;;;;;9.25;5.53;;;;;;;;;;4977185;28;20034;-84
2022/10/21 02:44:59;;;;;;;8.98;5.40;;;;;;;;;;4971728;28;20153;-84
2022/10/21 02:47:28;;;;;;;9.63;5.87;;;;;;;;;;4955540;28;20117;-84
2022/10/21 02:49:54;;;;;;;9.48;5.68;;;;;;;;;;4956565;28;20285;-84
2022/10/21 02:52:19;;;;;;;10.10;6.30;;;;;;;;;;4969294;28;20044;-83
2022/10/21 02:54:45;;;;;;;9.35;5.35;;;;;;;;;;4971600;28;20033;-84
2022/10/21 02:57:10;;;;;;;8.65;5.53;;;;;;;;;;4971026;28;20930;-83
2022/10/21 02:59:35;;;;;;;9.70;5.47;;;;;;;;;;4970712;28;20374;-80
2022/10/21 03:02:01;;;;;;;9.30;5.60;;;;;;;;;;4961935;28;20367;-81
2022/10/21 03:04:26;;;;;;;10.20;5.50;;;;;;;;;;4954179;28;20410;-81
2022/10/21 03:06:51;;;;;;;9.45;6.05;;;;;;;;;;4968006;28;20073;-81
2022/10/21 03:09:17;;;;;;;9.52;5.40;;;;;;;;;;4952600;28;20049;-81
2022/10/21 03:11:42;;;;;;;10.43;5.20;;;;;;;;;;4969335;28;20133;-81
2022/10/21 03:14:07;;;;;;;9.23;5.22;;;;;;;;;;4964430;28;20069;-81
2022/10/21 03:16:32;;;;;;;8.75;5.18;;;;;;;;;;4980561;28;20030;-81
2022/10/21 03:18:58;;;;;;;9.18;5.18;;;;;;;;;;4949165;28;20038;-82
2022/10/21 03:21:23;;;;;;;10.00;5.72;;;;;;;;;;4978320;28;20038;-84
2022/10/21 03:23:49;;;;;;;10.48;5.95;;;;;;;;;;4978467;28;20034;-83
2022/10/21 03:26:14;;;;;;;10.73;5.63;;;;;;;;;;4980627;28;20206;-84
2022/10/21 03:28:39;;;;;;;10.95;5.63;;;;;;;;;;4969292;28;20473;-83
2022/10/21 03:31:05;;;;;;;9.65;5.25;;;;;;;;;;4961974;28;20042;-84
2022/10/21 03:33:30;;;;;;;8.57;5.25;;;;;;;;;;4971681;28;20037;-84
2022/10/21 03:35:55;;;;;;;8.95;5.78;;;;;;;;;;4951899;28;20703;-83
2022/10/21 03:38:20;;;;;;;9.57;5.75;;;;;;;;;;4946437;28;20525;-83
2022/10/21 03:40:46;;;;;;;10.05;5.88;;;;;;;;;;4953272;28;20446;-83
2022/10/21 03:43:11;;;;;;;9.95;5.97;;;;;;;;;;4968639;28;20581;-83
2022/10/21 03:45:36;;;;;;;10.25;5.45;;;;;;;;;;4952355;28;20484;-84
2022/10/21 03:48:02;;;;;;;9.55;5.53;;;;;;;;;;4949254;28;20115;-84
2022/10/21 03:50:27;;;;;;;10.27;5.50;;;;;;;;;;4952351;28;20034;-84
2022/10/21 03:52:53;;;;;;;9.40;5.32;;;;;;;;;;4969118;28;20179;-83
2022/10/21 03:55:19;;;;;;;9.48;5.72;;;;;;;;;;4953872;28;20034;-83
2022/10/21 03:57:46;;;;;;;9.18;5.75;;;;;;;;;;4954539;28;20057;-84
2022/10/21 04:00:12;;;;;;;11.15;6.32;;;;;;;;;;4947863;28;20050;-84
2022/10/21 04:02:37;;;;;;;12.95;5.53;;;;;;;;;;4947173;28;20042;-84
2022/10/21 04:05:03;;;;;;;12.63;7.22;;;;;;;;;;4952775;28;20445;-83
2022/10/21 04:07:28;;;;;;;10.00;6.32;;;;;;;;;;4970186;28;20023;-84
2022/10/21 04:09:53;;;;;;;11.32;5.80;;;;;;;;;;4956738;28;20076;-83
2022/10/21 04:12:19;;;;;;;9.40;5.95;;;;;;;;;;4951002;28;20137;-84
2022/10/21 04:14:44;;;;;;;10.98;5.90;;;;;;;;;;4953384;28;20038;-84
2022/10/21 04:17:09;;;;;;;11.40;6.15;;;;;;;;;;4967978;28;20379;-83
2022/10/21 04:19:35;;;;;;;9.63;6.30;;;;;;;;;;4969541;28;20035;-84
2022/10/21 04:22:00;;;;;;;9.52;5.95;;;;;;;;;;4952746;28;20030;-83
2022/10/21 04:24:25;;;;;;;9.82;6.30;;;;;;;;;;4971489;28;20065;-83
2022/10/21 04:26:51;;;;;;;11.00;6.30;;;;;;;;;;4968620;28;20035;-84
2022/10/21 04:29:16;;;;;;;10.43;6.38;;;;;;;;;;4968438;28;20046;-83
2022/10/21 04:31:41;;;;;;;10.10;6.20;;;;;;;;;;4952310;28;20041;-82
2022/10/21 04:34:07;;;;;;;10.82;7.05;;;;;;;;;;4954609;28;20072;-83
2022/10/21 04:36:32;;;;;;;14.65;8.52;;;;;;;;;;4953417;28;20035;-83
2022/10/21 04:38:57;;;;;;;11.15;6.55;;;;;;;;;;4945245;28;20038;-82
2022/10/21 04:41:23;;;;;;;12.10;6.95;;;;;;;;;;4969973;28;20056;-83
2022/10/21 04:43:48;;;;;;;10.85;6.07;;;;;;;;;;4964329;28;20055;-83
2022/10/21 04:46:15;;;;;;;9.82;6.55;;;;;;;;;;4963739;28;20117;-84
2022/10/21 04:48:41;;;;;;;9.65;6.53;;;;;;;;;;4948118;28;20076;-83
2022/10/21 04:51:06;;;;;;;11.18;6.32;;;;;;;;;;4953221;28;20034;-84
2022/10/21 04:53:32;;;;;;;13.20;7.90;;;;;;;;;;4979114;28;20033;-84
2022/10/21 04:55:57;;;;;;;11.32;6.00;;;;;;;;;;4953753;28;20031;-84
2022/10/21 04:58:23;;;;;;;10.40;6.35;;;;;;;;;;4961323;28;20129;-83
2022/10/21 05:00:52;;;;;;;12.57;6.97;;;;;;;;;;4948326;28;20393;-85
2022/10/21 05:03:18;;;;;;;8.57;6.00;;;;;;;;;;4951819;28;20053;-84
2022/10/21 05:05:44;;;;;;;9.73;6.10;;;;;;;;;;4946821;28;20065;-84
2022/10/21 05:08:09;;;;;;;10.02;6.25;;;;;;;;;;4959394;28;20038;-83
2022/10/21 05:10:35;;;;;;;13.95;6.97;;;;;;;;;;4963050;28;20107;-84
2022/10/21 05:13:01;;;;;;;12.63;6.45;;;;;;;;;;4946054;28;20058;-84
2022/10/21 05:15:26;;;;;;;10.27;6.47;;;;;;;;;;4961786;28;20174;-84
2022/10/21 05:17:52;;;;;;;11.23;7.00;;;;;;;;;;4974591;28;20038;-81
2022/10/21 05:20:18;;;;;;;10.38;6.45;;;;;;;;;;4980310;28;20141;-82
2022/10/21 05:22:43;;;;;;;11.80;6.70;;;;;;;;;;4952044;28;20031;-83
2022/10/21 05:25:09;;;;;;;11.38;6.80;;;;;;;;;;4960738;28;20409;-84
2022/10/21 05:27:34;;;;;;;12.02;6.78;;;;;;;;;;4951872;28;20137;-82
2022/10/21 05:29:59;;;;;;;11.60;6.32;;;;;;;;;;4968610;28;20036;-82
2022/10/21 05:32:25;;;;;;;11.88;7.38;;;;;;;;;;4965969;28;20058;-82
2022/10/21 05:34:50;;;;;;;10.95;6.45;;;;;;;;;;4944301;28;20572;-82
2022/10/21 05:37:16;;;;;;;10.65;6.40;;;;;;;;;;4966399;28;20069;-82
2022/10/21 05:39:41;;;;;;;11.55;6.82;;;;;;;;;;4968847;28;20046;-82
2022/10/21 05:42:06;;;;;;;12.25;7.00;;;;;;;;;;4967675;28;20039;-81
2022/10/21 05:44:32;;;;;;;11.00;6.88;;;;;;;;;;4943048;28;20034;-82
2022/10/21 05:46:57;;;;;;;12.75;6.45;;;;;;;;;;4951111;28;20812;-82
2022/10/21 05:49:22;;;;;;;14.80;7.55;;;;;;;;;;4943835;28;20043;-80
2022/10/21 05:51:48;;;;;;;11.88;7.20;;;;;;;;;;4960270;28;20043;-81
2022/10/21 05:54:13;;;;;;;11.07;6.47;;;;;;;;;;4969124;28;20108;-81
2022/10/21 05:56:41;;;;;;;11.60;7.43;;;;;;;;;;4967214;28;20038;-80
2022/10/21 05:59:09;;;;;;;;;;;;;;;;;;4953935;28;20069;-81
2022/10/21 06:01:35;;;;;;;10.07;6.57;;;;;;;;;;4945749;28;19960;-80
2022/10/21 06:04:00;;;;;;;12.73;6.82;;;;;;;;;;4968322;28;20051;-80
2022/10/21 06:06:28;;;;;;;11.30;6.85;;;;;;;;;;4960147;28;20042;-79
2022/10/21 06:08:53;;;;;;;10.98;6.70;;;;;;;;;;4965065;28;20046;-79
2022/10/21 06:11:19;;;;;;;10.73;6.63;;;;;;;;;;4954384;28;20061;-80
2022/10/21 06:13:45;;;;;;;10.68;6.70;;;;;;;;;;4963528;28;20026;-80
2022/10/21 06:16:11;;;;;;;12.65;7.20;;;;;;;;;;4949264;28;20502;-80
2022/10/21 06:18:36;;;;;;;14.10;6.97;;;;;;;;;;4946931;28;20062;-80
2022/10/21 06:21:02;;;;;;;11.73;7.57;;;;;;;;;;4951259;28;20502;-80
2022/10/21 06:23:27;;;;;;;11.48;7.18;;;;;;;;;;4964991;28;20903;-79
2022/10/21 06:26:00;;;;;;;13.38;7.38;;;;;;;;;;4948109;28;20051;-79
2022/10/21 06:28:27;;;;;;;12.15;7.57;;;;;;;;;;4961710;28;20039;-80
2022/10/21 06:30:52;;;;;;;12.27;8.30;;;;;;;;;;4945585;28;20039;-80
2022/10/21 06:33:18;;;;;;;11.82;7.63;;;;;;;;;;4951886;28;20139;-80
2022/10/21 06:35:43;;;;;;;13.60;7.70;;;;;;;;;;4962184;28;20498;-80
2022/10/21 06:38:09;;;;;;;13.13;7.43;;;;;;;;;;4960424;28;20035;-79
2022/10/21 06:40:34;;;;;;;13.57;7.80;;;;;;;;;;4950433;28;20038;-80
2022/10/21 06:43:00;;;;;;;12.45;7.32;;;;;;;;;;4943865;28;20074;-80
2022/10/21 06:45:25;;;;;;;13.23;7.80;;;;;;;;;;4944955;28;20712;-82
2022/10/21 06:47:51;;;;;;;12.25;7.57;;;;;;;;;;4968473;28;20417;-80
2022/10/21 06:50:17;;;;;;;15.55;7.93;;;;;;;;;;4967557;28;20410;-80
2022/10/21 06:52:42;;;;;;;12.32;7.78;;;;;;;;;;4961113;28;20058;-80
2022/10/21 06:55:11;;;;;;;12.35;7.80;;;;;;;;;;4967502;28;20074;-80
2022/10/21 06:57:36;;;;;;;12.55;8.05;;;;;;;;;;4945630;28;20046;-80
2022/10/21 07:00:03;;;;;;;13.90;8.68;;;;;;;;;;4947770;28;20033;-80
2022/10/21 07:02:29;;;;;;;11.82;7.50;;;;;;;;;;4963973;28;20031;-80
2022/10/21 07:04:56;;;;;;;11.45;7.22;;;;;;;;;;4950807;28;20054;-80
2022/10/21 07:07:24;;;;;;;12.73;7.97;;;;;;;;;;4943935;28;20130;-80
2022/10/21 07:09:50;;;;;;;12.60;7.85;;;;;;;;;;4944552;28;20588;-80
2022/10/21 07:12:15;;;;;;;12.20;8.00;;;;;;;;;;4959608;28;20043;-80
2022/10/21 07:14:41;;;;;;;13.23;7.35;;;;;;;;;;4978296;28;20481;-80
2022/10/21 07:17:06;;;;;;;11.90;7.53;;;;;;;;;;4958976;28;20104;-80
2022/10/21 07:19:32;;;;;;;12.90;8.00;;;;;;;;;;4958892;28;20092;-80
2022/10/21 07:21:57;;;;;;;13.40;8.00;;;;;;;;;;4949197;28;20035;-80
2022/10/21 07:24:23;;;;;;;11.90;7.88;;;;;;;;;;4956564;28;20043;-80
2022/10/21 07:26:49;;;;;;;14.40;8.15;;;;;;;;;;4959168;28;20075;-80
2022/10/21 07:29:14;;;;;;;12.90;7.53;;;;;;;;;;4973810;28;20426;-80
2022/10/21 07:31:39;;;;;;;11.40;7.22;;;;;;;;;;4954094;28;20038;-80
2022/10/21 07:34:07;;;;;;;11.68;7.32;;;;;;;;;;4966990;28;20042;-80
2022/10/21 07:36:35;;;;;;;11.77;7.85;;;;;;;;;;4975278;28;20398;-80
2022/10/21 07:39:04;;;;;;;14.27;8.40;;;;;;;;;;4944529;28;20035;-80
2022/10/21 07:41:36;;;;;;;14.63;8.30;;;;;;;;;;4975845;28;20031;-81
2022/10/21 07:44:02;;;;;;;11.55;7.43;;;;;;;;;;4949187;28;20039;-81
2022/10/21 07:46:27;;;;;;;13.13;7.60;;;;;;;;;;4951531;28;20043;-81
2022/10/21 07:48:53;;;;;;;11.57;7.20;;;;;;;;;;4976774;28;20039;-80
2022/10/21 07:51:21;;;;;;;12.18;7.63;;;;;;;;;;4949050;28;20027;-81
2022/10/21 07:53:52;;;;;;;12.88;7.35;;;;;;;;;;4966423;28;20031;-80
2022/10/21 07:56:20;;;;;;;10.88;7.35;;;;;;;;;;4961243;28;20184;-80
2022/10/21 07:58:46;;;;;;;12.27;7.55;;;;;;;;;;4958638;28;20434;-80
2022/10/21 08:01:15;;;;;;;13.63;7.93;;;;;;;;;;4904490;28;20047;-80
2022/10/21 08:03:41;;;;;;;12.27;7.82;;;;;;;;;;4961880;28;20055;-82
2022/10/21 08:06:07;;;;;;;12.80;8.07;;;;;;;;;;4944392;28;20425;-81
2022/10/21 08:08:34;;;;;;;13.98;8.45;;;;;;;;;;4955196;28;20092;-81
2022/10/21 08:11:00;;;;;;;13.18;7.85;;;;;;;;;;4965288;28;20030;-81
2022/10/21 08:13:26;;;;;;;10.30;7.40;;;;;;;;;;4951553;28;20034;-81
2022/10/21 08:15:53;;;;;;;11.85;7.18;;;;;;;;;;4976003;28;20031;-80
2022/10/21 08:18:19;;;;;;;11.65;7.97;;;;;;;;;;4960018;28;20042;-81
2022/10/21 08:20:46;;;;;;;10.07;6.85;;;;;;;;;;4962922;28;20536;-81
2022/10/21 08:23:13;;;;;;;11.07;7.53;;;;;;;;;;4954471;28;20042;-80
2022/10/21 08:25:38;;;;;;;10.23;6.63;;;;;;;;;;4953195;28;20390;-80
2022/10/21 08:28:05;;;;;;;10.40;6.63;;;;;;;;;;4979743;28;20125;-81
2022/10/21 08:30:31;;;;;;;11.55;6.68;;;;;;;;;;4981284;28;20115;-81
2022/10/21 08:32:59;;;;;;;10.55;6.13;;;;;;;;;;4940849;28;20050;-81
2022/10/21 08:35:26;;;;;;;10.48;6.47;;;;;;;;;;4947703;28;20038;-82
2022/10/21 08:37:51;;;;;;;10.70;6.32;;;;;;;;;;4964538;28;20505;-81
2022/10/21 08:40:17;;;;;;;9.90;6.80;;;;;;;;;;4947240;28;20042;-82
2022/10/21 08:42:44;;;;;;;9.63;6.55;;;;;;;;;;4951329;28;20031;-82
2022/10/21 08:45:47;;;;;;;10.63;7.07;;;;;;;;;;4952555;28;20105;-81
2022/10/21 08:48:15;;;;;;;10.52;6.30;;;;;;;;;;4965219;28;20104;-81
2022/10/21 08:50:47;;;;;;;9.00;6.00;;;;;;;;;;4951535;28;20165;-82
2022/10/21 08:53:31;;;;;;;10.02;6.43;;;;;;;;;;4962403;28;20516;-81
2022/10/21 08:56:08;;;;;;;12.02;6.97;;;;;;;;;;4966757;28;20074;-81
2022/10/21 08:58:34;;;;;;;;;;;;;;;;;;4969903;28;20042;-81
2022/10/21 09:01:08;;;;;;;12.00;6.80;;;;;;;;;;4945154;28;20434;-82
2022/10/21 09:03:41;;;;;;;9.27;6.05;;;;;;;;;;4959789;28;20717;-80
2022/10/21 09:06:21;;;;;;;9.07;6.40;;;;;;;;;;4962175;28;20493;-81
2022/10/21 09:09:18;;;;;;;8.73;5.72;;;;;;;;;;4976942;28;20090;-81
2022/10/21 09:12:02;;;;;;;;;;;;;;;;;;4964898;28;20394;-82
2022/10/21 09:14:59;;;;;;;9.93;6.70;;;;;;;;;;4980710;28;19918;-80
2022/10/21 09:17:56;;;;;;;10.17;6.20;;;;;;;;;;4966703;28;20485;-81
2022/10/21 09:20:34;;;;;;;10.05;6.72;;;;;;;;;;4909137;28;20302;-80
2022/10/21 09:23:18;;;;;;;9.93;6.28;;;;;;;;;;4962613;28;20436;-81
2022/10/21 09:25:55;;;;;;;9.80;6.00;;;;;;;;;;4966125;28;20089;-81
2022/10/21 09:28:23;;;;;;;11.25;6.10;;;;;;;;;;4961582;28;20058;-82
2022/10/21 09:30:49;;;;;;;10.40;5.95;;;;;;;;;;4951580;28;20034;-82
2022/10/21 09:33:21;;;;;;;10.05;6.20;;;;;;;;;;4966960;28;20774;-82
2022/10/21 09:35:50;;;;;;;9.90;6.03;;;;;;;;;;4955095;28;20063;-81
2022/10/21 09:38:21;;;;;;;10.18;6.32;;;;;;;;;;4956162;28;20497;-81
2022/10/21 09:40:47;;;;;;;9.38;6.15;;;;;;;;;;4970814;28;20529;-81
2022/10/21 09:43:16;;;;;;;9.32;5.95;;;;;;;;;;4944468;28;20039;-81
2022/10/21 09:45:45;;;;;;;10.63;6.68;;;;;;;;;;4959940;28;20038;-81
2022/10/21 09:48:16;;;;;;;8.07;5.97;;;;;;;;;;4980311;28;20073;-82
2022/10/21 09:50:41;;;;;;;10.48;6.68;;;;;;;;;;4983038;28;20564;-82
2022/10/21 09:53:35;;;;;;;10.45;6.20;;;;;;;;;;4953670;28;20038;-80
2022/10/21 09:56:10;;;;;;;9.43;5.78;;;;;;;;;;4958626;28;20110;-80
2022/10/21 09:58:35;;;;;;;8.73;5.30;;;;;;;;;;4962716;28;20494;-80
2022/10/21 10:01:01;;;;;;;9.75;5.85;;;;;;;;;;4979875;28;20041;-79
2022/10/21 10:03:33;;;;;;;9.63;5.60;;;;;;;;;;4971982;28;20035;-81
2022/10/21 10:05:59;;;;;;;9.50;5.30;;;;;;;;;;4970120;28;20045;-81
2022/10/21 10:08:27;;;;;;;8.27;5.90;;;;;;;;;;4953788;28;20049;-80
2022/10/21 10:11:20;;;;;;;9.48;5.80;;;;;;;;;;4973664;28;20042;-80
2022/10/21 10:13:46;;;;;;;9.02;5.13;;;;;;;;;;4970824;28;20053;-80
2022/10/21 10:16:17;;;;;;;9.45;5.60;;;;;;;;;;4970794;28;20461;-81
2022/10/21 10:18:43;;;;;;;9.35;5.82;;;;;;;;;;4979871;28;20070;-80
2022/10/21 10:21:14;;;;;;;8.55;5.45;;;;;;;;;;4955202;28;20510;-80
2022/10/21 10:23:45;;;;;;;8.27;5.32;;;;;;;;;;4963196;28;20038;-81
2022/10/21 10:26:17;;;;;;;9.10;5.32;;;;;;;;;;4959854;28;20042;-80
2022/10/21 10:28:48;;;;;;;7.05;4.97;;;;;;;;;;4969526;28;20069;-80
2022/10/21 10:31:22;;;;;;;7.80;4.85;;;;;;;;;;4952434;28;20030;-80
2022/10/21 10:33:53;;;;;;;7.25;4.78;;;;;;;;;;4953391;28;20112;-80
2022/10/21 10:36:28;;;;;;;7.60;5.00;;;;;;;;;;4971607;28;20154;-79
2022/10/21 10:38:54;;;;;;;8.77;5.50;;;;;;;;;;4959835;28;20113;-80
2022/10/21 10:41:31;;;;;;;7.67;4.63;;;;;;;;;;4953859;28;20524;-80
2022/10/21 10:43:56;;;;;;;7.40;4.72;;;;;;;;;;4969347;28;20043;-80
2022/10/21 10:46:24;;;;;;;7.30;4.80;;;;;;;;;;4970083;28;20839;-81
2022/10/21 10:48:51;;;;;;;9.10;4.90;;;;;;;;;;4964654;28;20844;-81
2022/10/21 10:51:31;;;;;;;7.27;4.87;;;;;;;;;;4979971;28;20049;-81
2022/10/21 10:54:05;;;;;;;7.88;5.13;;;;;;;;;;4953428;28;20273;-81
2022/10/21 10:56:48;;;;;;;7.80;4.85;;;;;;;;;;4961614;28;20053;-80
2022/10/21 10:59:23;;;;;;;9.38;4.93;;;;;;;;;;4975600;28;20058;-80
2022/10/21 11:01:58;;;;;;;6.15;4.25;;;;;;;;;;4984901;28;20035;-80
2022/10/21 11:04:37;;;;;;;7.25;4.57;;;;;;;;;;4986858;28;20054;-80
2022/10/21 11:07:22;;;;;;;9.43;4.88;;;;;;;;;;4953588;28;20030;-79
2022/10/21 11:09:50;;;;;;;7.68;4.63;;;;;;;;;;4983025;28;20034;-80
2022/10/21 11:12:20;;;;;;;7.13;4.30;;;;;;;;;;4955415;28;20665;-81
2022/10/21 11:14:50;;;;;;;7.30;4.35;;;;;;;;;;4964073;28;20062;-80
2022/10/21 11:17:19;;;;;;;7.20;4.63;;;;;;;;;;4951381;28;20409;-80
2022/10/21 11:19:59;;;;;;;8.02;4.88;;;;;;;;;;4962398;28;20520;-79
2022/10/21 11:22:52;;;;;;;9.70;4.35;;;;;;;;;;4982283;28;20052;-81
2022/10/21 11:25:22;;;;;;;7.57;4.80;;;;;;;;;;4970993;28;20060;-80
2022/10/21 11:28:10;;;;;;;8.25;4.80;;;;;;;;;;4970539;28;20493;-81
2022/10/21 11:30:41;;;;;;;9.35;5.07;;;;;;;;;;4948728;28;20505;-79
2022/10/21 11:33:32;;;;;;;9.68;4.95;;;;;;;;;;4967665;28;20523;-79
2022/10/21 11:36:03;;;;;;;9.00;4.95;;;;;;;;;;4952839;28;20062;-79
2022/10/21 11:38:36;;;;;;;6.78;4.38;;;;;;;;;;4961605;28;20038;-80
2022/10/21 11:41:26;;;;;;;7.47;4.57;;;;;;;;;;4967467;28;20041;-80
2022/10/21 11:44:13;;;;;;;7.95;5.00;;;;;;;;;;4967201;28;20093;-80
2022/10/21 11:47:02;;;;;;;6.43;4.15;;;;;;;;;;4979367;28;20426;-82
2022/10/21 11:49:37;;;;;;;7.97;5.13;;;;;;;;;;4959837;28;20038;-80
2022/10/21 11:52:16;;;;;;;7.20;4.90;;;;;;;;;;4952757;28;20035;-81
2022/10/21 11:54:50;;;;;;;7.38;4.60;;;;;;;;;;4949377;28;20125;-82
2022/10/21 11:57:21;;;;;;;7.65;4.97;;;;;;;;;;4968003;28;20039;-81
2022/10/21 11:59:49;;;;;;;7.28;4.65;;;;;;;;;;4954504;28;20133;-80
2022/10/21 12:02:25;;;;;;;7.55;4.38;;;;;;;;;;4980856;28;20489;-80
2022/10/21 12:05:24;;;;;;;6.85;4.43;;;;;;;;;;4944026;28;20055;-80
2022/10/21 12:07:58;;;;;;;6.88;4.43;;;;;;;;;;4952927;28;20117;-80
2022/10/21 12:10:29;;;;;;;7.70;4.72;;;;;;;;;;4982446;28;21049;-79
2022/10/21 12:12:58;;;;;;;7.30;4.75;;;;;;;;;;4959683;28;20493;-80
2022/10/21 12:15:34;;;;;;;8.27;4.82;;;;;;;;;;4951704;28;20457;-80
2022/10/21 12:18:03;;;;;;;6.72;4.60;;;;;;;;;;4946601;28;20455;-80
2022/10/21 12:20:28;;;;;;;7.30;4.80;;;;;;;;;;4964107;28;20546;-80
2022/10/21 12:23:01;;;;;;;8.13;4.95;;;;;;;;;;4961661;28;20034;-80
2022/10/21 12:25:35;;;;;;;8.45;5.13;;;;;;;;;;4951919;28;20042;-79
2022/10/21 12:28:05;;;;;;;8.32;5.05;;;;;;;;;;4963856;28;20042;-80
2022/10/21 12:30:49;;;;;;;7.53;4.90;;;;;;;;;;4968238;28;20034;-80
2022/10/21 12:33:34;;;;;;;6.38;4.30;;;;;;;;;;4962736;28;20078;-81
2022/10/21 12:36:17;;;;;;;6.35;4.43;;;;;;;;;;4952311;28;20034;-81
2022/10/21 12:38:57;;;;;;;8.02;4.68;;;;;;;;;;4960470;28;20042;-84
2022/10/21 12:41:22;;;;;;;9.00;4.60;;;;;;;;;;4968326;28;20410;-84
2022/10/21 12:43:52;;;;;;;8.23;4.45;;;;;;;;;;4975868;28;20031;-85
2022/10/21 12:46:22;;;;;;;7.50;4.20;;;;;;;;;;4980388;28;20034;-84
2022/10/21 12:48:48;;;;;;;7.07;4.40;;;;;;;;;;4952948;28;20043;-84
2022/10/21 12:51:25;;;;;;;8.98;4.90;;;;;;;;;;4952673;28;20556;-85
2022/10/21 12:53:54;;;;;;;6.97;4.50;;;;;;;;;;4961289;28;20039;-85
2022/10/21 12:56:27;;;;;;;7.28;4.35;;;;;;;;;;4959411;28;20097;-81
2022/10/21 12:59:02;;;;;;;7.43;4.85;;;;;;;;;;4959094;28;20030;-80
2022/10/21 13:01:33;;;;;;;7.07;4.65;;;;;;;;;;4950605;28;20058;-85
2022/10/21 13:03:59;;;;;;;8.13;4.82;;;;;;;;;;4978244;28;20477;-84
2022/10/21 13:06:51;;;;;;;7.35;4.50;;;;;;;;;;4946879;28;20038;-84
2022/10/21 13:09:34;;;;;;;7.55;4.72;;;;;;;;;;4976700;28;20054;-85
2022/10/21 13:12:22;;;;;;;9.30;4.60;;;;;;;;;;4966406;28;20039;-85
2022/10/21 13:14:50;;;;;;;7.50;4.60;;;;;;;;;;4951647;28;20521;-84
2022/10/21 13:17:21;;;;;;;6.43;4.38;;;;;;;;;;4974821;28;20038;-85
2022/10/21 13:19:48;;;;;;;7.00;4.50;;;;;;;;;;4964945;28;20038;-85
2022/10/21 13:22:19;;;;;;;6.70;4.43;;;;;;;;;;4938288;28;20052;-84
2022/10/21 13:24:45;;;;;;;8.63;4.85;;;;;;;;;;4967196;28;20049;-85
2022/10/21 13:27:30;;;;;;;6.82;4.45;;;;;;;;;;4966931;28;20051;-85
2022/10/21 13:29:56;;;;;;;8.32;4.63;;;;;;;;;;4950684;28;20453;-84
2022/10/21 13:32:26;;;;;;;8.55;4.93;;;;;;;;;;4962103;28;20150;-84
2022/10/21 13:35:13;;;;;;;6.90;4.68;;;;;;;;;;4962738;28;20741;-86
2022/10/21 13:37:51;;;;;;;7.18;4.70;;;;;;;;;;4961714;28;20034;-83
2022/10/21 13:40:18;;;;;;;8.80;5.20;;;;;;;;;;4950357;28;20038;-81
2022/10/21 13:42:47;;;;;;;7.88;4.82;;;;;;;;;;4951585;28;20035;-82
2022/10/21 13:45:44;;;;;;;7.32;4.25;;;;;;;;;;4966832;28;20054;-82
2022/10/21 13:48:15;;;;;;;8.10;4.53;;;;;;;;;;4956864;28;20093;-81
2022/10/21 13:50:43;;;;;;;6.60;4.38;;;;;;;;;;4977211;28;20190;-83
2022/10/21 13:53:35;;;;;;;7.32;4.47;;;;;;;;;;4946922;28;20038;-83
2022/10/21 13:56:03;;;;;;;6.68;4.22;;;;;;;;;;4957013;28;20482;-83
2022/10/21 13:58:29;;;;;;;;;;;;;;;;;;4963524;28;20058;-80
2022/10/21 14:00:55;;;;;;;6.88;4.13;;;;;;;;;;4944904;28;19922;-84
2022/10/21 14:03:23;;;;;;;7.03;4.32;;;;;;;;;;4954135;28;20038;-80
2022/10/21 14:05:58;;;;;;;7.03;4.28;;;;;;;;;;4947650;28;20141;-82
2022/10/21 14:08:44;;;;;;;7.50;4.65;;;;;;;;;;4960653;28;20047;-81
2022/10/21 14:11:30;;;;;;;7.75;4.60;;;;;;;;;;4959966;28;20035;-82
2022/10/21 14:13:57;;;;;;;7.32;4.60;;;;;;;;;;4960802;28;20038;-81
2022/10/21 14:16:31;;;;;;;8.43;4.95;;;;;;;;;;4967704;28;20038;-83
2022/10/21 14:18:57;;;;;;;7.00;4.60;;;;;;;;;;4946655;28;20050;-86
2022/10/21 14:21:24;;;;;;;6.65;4.50;;;;;;;;;;4953829;28;20073;-86
2022/10/21 14:23:50;;;;;;;8.88;4.88;;;;;;;;;;4964889;28;20097;-86
2022/10/21 14:26:16;;;;;;;8.23;4.38;;;;;;;;;;4958194;28;20362;-86
2022/10/21 14:28:41;;;;;;;6.28;4.45;;;;;;;;;;4963089;28;20050;-86
2022/10/21 14:31:11;;;;;;;6.70;4.40;;;;;;;;;;4947397;28;20493;-86
2022/10/21 14:33:42;;;;;;;8.55;5.50;;;;;;;;;;4950244;28;20034;-87
2022/10/21 14:36:18;;;;;;;8.30;5.22;;;;;;;;;;4945295;28;20038;-86
2022/10/21 14:38:53;;;;;;;9.48;5.88;;;;;;;;;;4955352;28;20030;-86
2022/10/21 14:41:40;;;;;;;8.45;5.43;;;;;;;;;;4983762;28;20042;-86
2022/10/21 14:44:18;;;;;;;8.52;5.18;;;;;;;;;;4954411;28;20552;-86
2022/10/21 14:46:49;;;;;;;8.50;5.57;;;;;;;;;;4953673;28;20042;-86
2022/10/21 14:49:27;;;;;;;8.32;5.45;;;;;;;;;;4946254;28;20034;-87
2022/10/21 14:52:23;;;;;;;8.77;5.45;;;;;;;;;;4947154;28;20069;-86
2022/10/21 14:54:53;;;;;;;7.82;4.85;;;;;;;;;;4974533;28;20038;-86
2022/10/21 14:57:41;;;;;;;8.48;5.82;;;;;;;;;;4946615;28;20049;-86